METAR Austria - 23 Oct 2017 - 0948 UTC - RocketRoute WX - rrwx.com
LOWG 230920Z 32005KT 9999 SCT060 BKN110 11/05 Q1011 NOSIG LOWI 230920Z 08004KT 010V130 9999 RA FEW005 SCT010 BKN025 06/04 Q1020 TEMPO -RA LOWK 230920Z VRB01KT 9999 FEW006 SCT070 BKN200 08/05 Q1013 BECMG 36010KT LOWL 230920Z 28013KT 9999 SCT016 BKN037 09/06 Q1017 NOSIG LOWS 230920Z 29009KT 9999 FEW010 SCT025 BKN045 08/04 Q1020 NOSIG LOWW 230920Z 32017KT 9999 -SHRA FEW017 BKN020 09/07 Q1012 NOSIG LOAN 230900Z 33012G25KT 10KM SCT020CU BKN050SC LOXZ 230920Z 09006KT 20KM -SHRA SCT040SC BKN050SC 08/03 Q1012 TEMPO 300/15KT

RocketRoute WX - rrwx.com weather for pilots